Belfast, United Kingdom

9:10 PM IST on August 28, 2015 (GMT +0100)
IBELFAST4 | | Change Station
CLOSE
Current Station
Personal Weather Station
Location: Belfast, School of Geography, Archaeology and Palaeoecology QUB
Elevation: 23 ft
Nearby Weather Stations

Elev 23 ft 54.59 °N, 5.94 °W | Updated 11 seconds ago

Partly Cloudy
Partly Cloudy
58.4 °F
Feels Like 58.4 °F
N
6.9
Wind Variable Wind from SW
Gusts 6.9 mph

Today
High -- | Low -- °F
--% Chance of Precip.
Yesterday
High -- | Low -- °F
Precip. -- in
6:22 AM 8:26 PM
Waxing Gibbous, 99% visible
Pressure 29.80 in
Visibility 6.2 miles
Clouds Few 1800 ft
Dew Point 54 °F
Humidity 85%
Rainfall 0.18 in
Snow Depth Not available.
UV 0.0 out of 12
Pollen Not available.
Air Quality Not available.
Flu Activity Not available.
METAR EGAC 281950Z 20009KT 9999 FEW018 14/09 Q1009
Pressure 29.80 in
Visibility 6.2 miles
Clouds Few 1800 ft
Dew Point 54 °F
Humidity 85%
Rainfall 0.18 in
Snow Depth Not available.
UV 0.0 out of 12
Pollen Not available.
Air Quality Not available.
Flu Activity Not available.
METAR EGAC 281950Z 20009KT 9999 FEW018 14/09 Q1009

10-Day Weather Forecast

×

Almanac

Astronomy

Aug. 28, 2015 Rise Set
Actual Time
Civil Twilight
Nautical Twilight
Astronomical Twilight
Moon
Length of Visible Light
Length of Day
Tomorrow will be .
, % of the Moon is Illuminated

Today's Extremes

Country Highs Country Lows

Community

WunderPhotos

Upload Photos

1,850,468 photos uploaded!

WunderBlogs® & News

Nearby

Air Quality

  Air Quality AQ Index Pollutant
Not available.

Snow Depth

Station Depth Elevation

Earthquake Activity

City Distance Mag. Time & Date
Minimum magnitude displayed is 2.5.

Coastal Water Temperatures

Place Temperature

Stations

Nearby Weather Stations

Station Location Temp. Windchill Dew Point Humidity Wind Precip. Elev Updated Type